Time;durP1;ratioP1;P1;durP2;ratioP2;P2;SDS_P1;SDS_P2;PMS_P1;PMS_P2;Temp;Humidity;BMP_temperature;BMP_pressure;BME280_temperature;BME280_humidity;BME280_pressure;Samples;Min_cycle;Max_cycle;Signal;HPM_P1;HPM_P2
2023/06/04 04:22:32;;;;;;;2.08;1.23;;;;;;;13.58;57.34;100298.69;5089486;28;20389;-65
2023/06/04 04:24:58;;;;;;;2.70;1.25;;;;;;;13.64;57.47;100299.78;5088205;28;20033;-65
2023/06/04 04:27:25;;;;;;;1.17;1.00;;;;;;;13.67;57.06;100304.75;5088232;28;20036;-65
2023/06/04 04:29:51;;;;;;;1.13;0.70;;;;;;;13.69;56.94;100313.41;5087591;28;20040;-66
2023/06/04 04:32:16;;;;;;;0.73;0.52;;;;;;;13.74;56.77;100316.34;5088105;28;20364;-66
2023/06/04 04:34:53;;;;;;;1.52;1.23;;;;;;;13.80;56.32;100311.03;5088031;28;20558;-66
2023/06/04 04:37:21;;;;;;;0.60;0.60;;;;;;;13.81;56.37;100309.19;5087863;28;20123;-66
2023/06/04 04:39:47;;;;;;;2.28;0.80;;;;;;;13.79;56.33;100300.53;5087650;28;20025;-66
2023/06/04 04:42:13;;;;;;;2.60;0.60;;;;;;;13.81;56.50;100320.72;5087889;28;20070;-66
2023/06/04 04:44:39;;;;;;;0.82;0.50;;;;;;;13.82;56.61;100316.19;5087696;28;20036;-65
2023/06/04 04:47:04;;;;;;;0.60;0.60;;;;;;;13.81;56.63;100319.91;5088017;28;20068;-66
2023/06/04 04:49:30;;;;;;;1.42;1.00;;;;;;;13.82;57.00;100319.75;5088767;28;20036;-65
2023/06/04 04:51:55;;;;;;;1.30;0.90;;;;;;;13.89;57.77;100322.47;5088971;28;20101;-66
2023/06/04 04:54:21;;;;;;;1.67;1.10;;;;;;;13.90;57.04;100324.13;5087623;28;20074;-66
2023/06/04 04:56:46;;;;;;;1.70;0.85;;;;;;;13.91;56.67;100324.94;5087624;28;20597;-68
2023/06/04 04:59:12;;;;;;;1.60;0.98;;;;;;;13.96;56.42;100323.34;5087184;28;20410;-65
2023/06/04 05:01:37;;;;;;;3.20;1.25;;;;;;;13.96;56.47;100326.03;5087371;28;20386;-65
2023/06/04 05:04:04;;;;;;;2.13;1.10;;;;;;;14.01;56.46;100331.59;5087483;28;20044;-66
2023/06/04 05:06:30;;;;;;;1.10;0.77;;;;;;;14.12;56.25;100323.06;5087349;28;20040;-65
2023/06/04 05:08:56;;;;;;;0.90;0.82;;;;;;;14.09;56.03;100322.63;5088288;28;20040;-66
2023/06/04 05:11:22;;;;;;;2.25;1.02;;;;;;;14.07;55.84;100317.44;5088745;28;20036;-66
2023/06/04 05:13:47;;;;;;;1.10;1.00;;;;;;;14.22;55.93;100319.22;5088508;28;20396;-67
2023/06/04 05:16:13;;;;;;;2.15;0.93;;;;;;;14.32;55.67;100325.06;5087126;28;20051;-67
2023/06/04 05:18:41;;;;;;;;;;;;;;;14.28;55.42;100321.94;5087304;28;20090;-65
2023/06/04 05:21:07;;;;;;;1.00;0.70;;;;;;;14.35;55.35;100330.88;5087164;28;20412;-66
2023/06/04 05:23:38;;;;;;;0.90;0.57;;;;;;;14.31;55.37;100323.41;5086991;28;20047;-67
2023/06/04 05:26:05;;;;;;;0.82;0.70;;;;;;;14.40;55.15;100331.06;5086779;28;20032;-67
2023/06/04 05:28:34;;;;;;;1.27;1.08;;;;;;;14.52;55.08;100333.25;5086516;28;20036;-67
2023/06/04 05:31:00;;;;;;;1.45;0.90;;;;;;;14.47;55.41;100333.00;5086809;28;20024;-66
2023/06/04 05:33:30;;;;;;;0.90;0.70;;;;;;;14.44;55.64;100330.69;5075771;28;20497;-61
2023/06/04 05:35:59;;;;;;;1.75;0.95;;;;;;;14.62;54.95;100336.44;5071491;28;20032;-60
2023/06/04 05:38:30;;;;;;;0.93;0.80;;;;;;;14.55;55.38;100332.88;5073084;28;20127;-62
2023/06/04 05:40:58;;;;;;;2.40;1.35;;;;;;;14.60;54.80;100341.97;5073410;28;20032;-62
2023/06/04 05:43:28;;;;;;;1.92;0.88;;;;;;;14.66;54.95;100338.50;5073079;28;20105;-60
2023/06/04 05:45:53;;;;;;;1.02;0.70;;;;;;;14.68;55.33;100337.50;5073276;28;20041;-60
2023/06/04 05:48:19;;;;;;;1.10;1.00;;;;;;;14.76;55.38;100340.81;5055728;28;20032;-61
2023/06/04 05:50:44;;;;;;;1.48;1.00;;;;;;;14.93;55.58;100336.81;5073015;28;20037;-59
2023/06/04 05:53:10;;;;;;;1.65;0.88;;;;;;;14.86;55.46;100335.91;5073116;28;20405;-61
2023/06/04 05:55:36;;;;;;;1.48;0.82;;;;;;;14.95;55.32;100336.59;5072871;28;20028;-61
2023/06/04 05:58:02;;;;;;;4.10;0.93;;;;;;;15.07;54.16;100340.38;5072895;28;20051;-60
2023/06/04 06:00:27;;;;;;;1.63;0.80;;;;;;;15.03;54.42;100341.78;5072572;28;20044;-60
2023/06/04 06:02:53;;;;;;;1.27;0.80;;;;;;;15.06;55.20;100344.06;5072858;28;20032;-58
2023/06/04 06:05:32;;;;;;;0.82;0.73;;;;;;;15.34;54.04;100354.69;5072723;28;20028;-59
2023/06/04 06:07:57;;;;;;;0.65;0.60;;;;;;;15.33;53.96;100349.53;5072565;28;20386;-60
2023/06/04 06:10:23;;;;;;;1.52;0.93;;;;;;;15.29;53.46;100356.31;5055688;28;20062;-60
2023/06/04 06:12:49;;;;;;;1.00;0.88;;;;;;;15.33;53.96;100357.59;5072758;28;20040;-59
2023/06/04 06:15:15;;;;;;;1.92;0.50;;;;;;;15.32;53.37;100356.75;5072733;28;20066;-60
2023/06/04 06:17:42;;;;;;;1.75;0.90;;;;;;;15.39;53.39;100359.47;5072616;28;20033;-59
2023/06/04 06:20:08;;;;;;;1.42;0.75;;;;;;;15.37;52.94;100356.13;5072056;28;20059;-61
2023/06/04 06:22:35;;;;;;;0.98;0.60;;;;;;;15.33;53.01;100355.72;5072562;28;20191;-62
2023/06/04 06:25:02;;;;;;;1.27;0.98;;;;;;;15.37;52.90;100365.00;5072429;28;20032;-60
2023/06/04 06:27:27;;;;;;;0.85;0.80;;;;;;;15.46;52.48;100360.31;5073650;28;20051;-61
2023/06/04 06:29:53;;;;;;;1.23;0.70;;;;;;;15.56;52.66;100363.41;5073396;28;20044;-61
2023/06/04 06:32:18;;;;;;;1.27;0.60;;;;;;;15.69;51.48;100363.47;5073632;28;20040;-59
2023/06/04 06:34:44;;;;;;;2.30;0.95;;;;;;;15.67;51.88;100362.03;5073522;28;20041;-60
2023/06/04 06:37:09;;;;;;;2.38;0.93;;;;;;;15.85;52.00;100366.84;5073381;28;20048;-63
2023/06/04 06:39:35;;;;;;;0.73;0.73;;;;;;;15.97;51.25;100367.84;5073200;28;20090;-60
2023/06/04 06:42:00;;;;;;;1.42;0.90;;;;;;;15.94;51.27;100366.41;5073360;28;20602;-60
2023/06/04 06:44:32;;;;;;;1.08;0.82;;;;;;;16.10;50.25;100365.16;5071172;28;20147;-60
2023/06/04 06:46:57;;;;;;;5.18;0.80;;;;;;;16.20;50.52;100372.84;5072970;28;20536;-61
2023/06/04 06:49:23;;;;;;;0.98;0.73;;;;;;;16.31;50.12;100372.22;5072753;28;20036;-62
2023/06/04 06:51:48;;;;;;;1.15;0.95;;;;;;;16.42;49.83;100376.13;5073166;28;20040;-62
2023/06/04 06:54:16;;;;;;;3.53;0.98;;;;;;;16.43;50.39;100362.50;5073165;28;20455;-63
2023/06/04 06:56:42;;;;;;;2.70;0.82;;;;;;;16.64;49.62;100372.19;5072935;28;20048;-61
2023/06/04 06:59:07;;;;;;;1.13;0.70;;;;;;;16.59;50.00;100369.28;5072751;28;20036;-62
2023/06/04 07:01:33;;;;;;;1.73;0.95;;;;;;;16.57;49.62;100370.56;5073102;28;20440;-59
2023/06/04 07:03:59;;;;;;;2.17;1.15;;;;;;;16.71;49.34;100370.34;5072857;28;20079;-60
2023/06/04 07:06:24;;;;;;;1.15;0.73;;;;;;;16.81;49.45;100359.13;5072584;28;20045;-62
2023/06/04 07:08:50;;;;;;;1.10;0.98;;;;;;;16.93;49.36;100370.06;5054804;28;20079;-61
2023/06/04 07:11:16;;;;;;;2.28;1.40;;;;;;;17.03;49.86;100365.91;5072886;28;20147;-62
2023/06/04 07:13:42;;;;;;;2.42;1.42;;;;;;;17.09;49.22;100364.22;5064545;28;20029;-63
2023/06/04 07:16:07;;;;;;;1.70;0.85;;;;;;;17.24;49.48;100366.66;5057910;28;20068;-58
2023/06/04 07:18:33;;;;;;;2.15;0.93;;;;;;;17.25;48.84;100368.28;5052435;28;20037;-58
2023/06/04 07:20:59;;;;;;;1.52;1.10;;;;;;;17.31;48.19;100376.34;5052473;28;20067;-62
2023/06/04 07:23:25;;;;;;;1.63;1.13;;;;;;;17.41;48.27;100378.59;5052781;28;20063;-59
2023/06/04 07:25:50;;;;;;;1.48;0.85;;;;;;;17.59;47.79;100375.16;5052362;28;20036;-62
2023/06/04 07:28:15;;;;;;;1.25;1.10;;;;;;;17.55;47.89;100365.88;5052378;28;20025;-61
2023/06/04 07:30:41;;;;;;;1.25;1.00;;;;;;;17.66;47.90;100375.94;5052393;28;20036;-59
2023/06/04 07:33:06;;;;;;;2.25;1.40;;;;;;;17.79;47.78;100372.38;5051145;28;20490;-62
2023/06/04 07:35:32;;;;;;;1.60;1.00;;;;;;;17.88;48.66;100379.16;5052388;28;20060;-60
2023/06/04 07:37:57;;;;;;;1.65;0.90;;;;;;;17.98;49.01;100375.97;5052307;28;20102;-59
2023/06/04 07:40:23;;;;;;;1.27;1.00;;;;;;;18.08;48.22;100371.75;5051963;28;20037;-61
2023/06/04 07:42:48;;;;;;;3.42;1.20;;;;;;;18.28;48.42;100371.59;5052265;28;20037;-61
2023/06/04 07:45:15;;;;;;;2.30;1.27;;;;;;;18.48;47.06;100370.59;5050966;28;20041;-58
2023/06/04 07:47:41;;;;;;;2.53;0.85;;;;;;;18.43;47.54;100379.34;5052187;28;20048;-61
2023/06/04 07:50:07;;;;;;;1.60;1.08;;;;;;;18.37;47.66;100372.13;5051935;28;20076;-58
2023/06/04 07:52:33;;;;;;;1.60;0.90;;;;;;;18.61;47.26;100374.00;5052066;28;20036;-59
2023/06/04 07:54:59;;;;;;;1.87;1.00;;;;;;;18.73;47.06;100376.00;5051776;28;20490;-59
2023/06/04 07:57:25;;;;;;;2.97;1.05;;;;;;;18.75;47.33;100374.72;5052053;28;20046;-58
2023/06/04 07:59:51;;;;;;;0.68;0.60;;;;;;;18.75;46.77;100374.72;5051705;28;20116;-59
2023/06/04 08:02:17;;;;;;;1.80;1.10;;;;;;;19.02;46.69;100369.84;5051996;28;20040;-61
2023/06/04 08:04:42;;;;;;;0.95;0.80;;;;;;;19.04;46.44;100372.31;5052079;28;20041;-59
2023/06/04 08:07:08;;;;;;;1.05;0.73;;;;;;;19.26;45.41;100373.50;5051929;28;20044;-57
2023/06/04 08:09:34;;;;;;;1.73;0.80;;;;;;;19.33;45.66;100366.13;5051601;28;20033;-60
2023/06/04 08:12:00;;;;;;;1.83;1.17;;;;;;;19.49;46.08;100370.06;5051815;28;20029;-60
2023/06/04 08:14:27;;;;;;;1.05;0.88;;;;;;;19.50;45.20;100369.88;5051862;28;20094;-59
2023/06/04 08:16:55;;;;;;;1.38;0.90;;;;;;;19.76;45.26;100367.88;5051689;28;20478;-57
2023/06/04 08:19:21;;;;;;;2.03;1.10;;;;;;;19.95;44.66;100374.00;5051576;28;20123;-57
2023/06/04 08:21:47;;;;;;;1.00;0.60;;;;;;;19.85;45.16;100373.78;5051661;28;20060;-61
2023/06/04 08:24:12;;;;;;;1.58;1.00;;;;;;;19.84;44.58;100367.53;5051822;28;20068;-58
2023/06/04 08:26:38;;;;;;;2.35;0.93;;;;;;;19.95;44.97;100372.16;5051904;28;20068;-61
2023/06/04 08:29:04;;;;;;;2.25;1.13;;;;;;;19.98;44.50;100373.56;5051536;28;20037;-61
2023/06/04 08:31:29;;;;;;;2.65;1.10;;;;;;;20.13;44.23;100375.81;5051525;28;20052;-61
2023/06/04 08:33:55;;;;;;;3.45;1.02;;;;;;;20.21;43.96;100373.63;5051628;28;20406;-60
2023/06/04 08:36:20;;;;;;;1.63;1.10;;;;;;;20.49;43.48;100377.53;5051448;28;20052;-59
2023/06/04 08:38:50;;;;;;;1.95;1.08;;;;;;;20.54;43.47;100374.97;5051131;28;20065;-59
2023/06/04 08:41:20;;;;;;;1.02;0.80;;;;;;;20.85;43.57;100376.44;5051487;28;20037;-62
2023/06/04 08:43:46;;;;;;;2.88;1.00;;;;;;;20.69;43.28;100382.59;5051543;28;20037;-57
2023/06/04 08:46:14;;;;;;;2.40;1.17;;;;;;;20.70;43.32;100376.13;5051345;28;20033;-59
2023/06/04 08:48:40;;;;;;;1.45;0.88;;;;;;;21.03;43.35;100376.31;5051322;28;20040;-61
2023/06/04 08:51:10;;;;;;;2.17;1.13;;;;;;;21.16;42.96;100379.81;5051526;28;20128;-59
2023/06/04 08:53:39;;;;;;;2.40;1.30;;;;;;;20.91;43.07;100367.38;5051445;28;20079;-59
2023/06/04 08:56:05;;;;;;;1.13;1.00;;;;;;;20.78;43.16;100378.47;5051410;28;20076;-58
2023/06/04 08:58:34;;;;;;;1.80;1.00;;;;;;;20.82;43.57;100377.75;5051230;28;20134;-59
2023/06/04 09:01:01;;;;;;;2.72;1.27;;;;;;;21.19;42.36;100380.16;5051500;28;20124;-59
2023/06/04 09:03:27;;;;;;;3.55;1.25;;;;;;;21.17;42.55;100376.84;5051413;28;20044;-61
2023/06/04 09:05:55;;;;;;;1.85;1.20;;;;;;;21.40;43.13;100382.25;5051421;28;20182;-60
2023/06/04 09:08:22;;;;;;;2.42;1.30;;;;;;;21.65;42.13;100381.09;5053296;28;20529;-60
2023/06/04 09:10:51;;;;;;;1.95;1.40;;;;;;;21.77;41.89;100381.84;5055054;28;20123;-56
2023/06/04 09:13:21;;;;;;;1.90;1.10;;;;;;;22.01;41.53;100377.09;5054853;28;20037;-57
2023/06/04 09:15:46;;;;;;;1.90;1.33;;;;;;;22.21;40.66;100376.66;5055029;28;20032;-59
2023/06/04 09:18:12;;;;;;;2.28;1.60;;;;;;;22.33;40.84;100380.09;5055022;28;20052;-60
2023/06/04 09:20:38;;;;;;;3.20;1.45;;;;;;;22.54;40.11;100385.84;5054597;28;20037;-58
2023/06/04 09:23:13;;;;;;;2.90;1.35;;;;;;;22.76;40.48;100386.72;5054761;28;20040;-59
2023/06/04 09:25:42;;;;;;;2.05;1.52;;;;;;;22.83;40.26;100387.38;5054796;28;20116;-61
2023/06/04 09:28:07;;;;;;;2.38;1.20;;;;;;;22.70;39.63;100387.72;5054759;28;20041;-58
2023/06/04 09:30:33;;;;;;;3.75;2.50;;;;;;;23.33;39.04;100391.81;5054444;28;20095;-60
2023/06/04 09:33:08;;;;;;;2.03;1.40;;;;;;;23.55;37.85;100387.19;5054800;28;20041;-59
2023/06/04 09:35:34;;;;;;;4.25;1.60;;;;;;;23.65;37.67;100377.53;5054864;28;20445;-58
2023/06/04 09:37:59;;;;;;;3.35;1.20;;;;;;;23.92;36.66;100388.41;5053459;28;20033;-62
2023/06/04 09:40:38;;;;;;;3.20;1.95;;;;;;;23.85;37.16;100383.16;5053153;28;20041;-60
2023/06/04 09:43:03;;;;;;;4.10;1.70;;;;;;;24.18;36.04;100384.81;5054513;28;20123;-60
2023/06/04 09:45:35;;;;;;;2.42;1.20;;;;;;;23.75;36.71;100369.50;5054532;28;20121;-58
2023/06/04 09:48:02;;;;;;;1.27;1.17;;;;;;;24.15;36.19;100382.63;5054332;28;20033;-58
2023/06/04 09:50:34;;;;;;;2.47;1.40;;;;;;;24.36;35.85;100381.72;5054073;28;20032;-61
2023/06/04 09:53:02;;;;;;;2.20;1.38;;;;;;;24.46;35.19;100386.44;5054742;28;21111;-62
2023/06/04 09:55:27;;;;;;;2.72;1.20;;;;;;;24.51;35.51;100377.47;5054284;28;20382;-59
2023/06/04 09:57:53;;;;;;;2.00;1.10;;;;;;;24.36;35.22;100379.00;5054297;28;20099;-62
2023/06/04 10:00:23;;;;;;;1.45;1.23;;;;;;;24.55;34.63;100381.31;5054008;28;20043;-60
2023/06/04 10:02:53;;;;;;;2.13;1.10;;;;;;;25.07;33.95;100384.09;5054282;28;20398;-60
2023/06/04 10:05:21;;;;;;;2.03;1.35;;;;;;;25.16;34.29;100374.31;5053889;28;20048;-60
2023/06/04 10:07:51;;;;;;;1.58;1.25;;;;;;;25.41;32.89;100370.03;5054266;28;20037;-62
2023/06/04 10:10:20;;;;;;;1.73;1.23;;;;;;;25.66;32.70;100381.00;5053688;28;20082;-59
2023/06/04 10:13:06;;;;;;;1.45;1.00;;;;;;;26.01;31.33;100368.53;5053982;28;20139;-59
2023/06/04 10:15:34;;;;;;;2.97;1.27;;;;;;;25.80;32.48;100375.06;5053945;28;20037;-60
2023/06/04 10:18:01;;;;;;;2.70;1.10;;;;;;;25.91;31.58;100365.81;5053764;28;20275;-60
2023/06/04 10:20:27;;;;;;;1.95;1.20;;;;;;;26.36;31.64;100369.63;5053296;28;20087;-62
2023/06/04 10:22:53;;;;;;;2.22;1.15;;;;;;;26.56;30.73;100375.09;5053805;28;20044;-59
2023/06/04 10:25:20;;;;;;;2.50;1.53;;;;;;;26.45;31.51;100377.00;5053451;28;20033;-63
2023/06/04 10:27:46;;;;;;;1.50;1.30;;;;;;;26.88;30.98;100371.19;5053680;28;20756;-60
2023/06/04 10:30:12;;;;;;;2.08;1.17;;;;;;;26.98;30.78;100368.41;5053330;28;20550;-58
2023/06/04 10:32:37;;;;;;;2.70;1.40;;;;;;;26.98;29.83;100369.22;5053428;28;20486;-62
2023/06/04 10:35:07;;;;;;;2.47;1.48;;;;;;;27.34;29.79;100363.63;5053694;28;20033;-59
2023/06/04 10:37:33;;;;;;;1.63;1.20;;;;;;;27.19;29.99;100356.34;5053679;28;20560;-59
2023/06/04 10:39:59;;;;;;;2.42;1.38;;;;;;;27.32;29.95;100363.06;5053244;28;20033;-62
2023/06/04 10:42:25;;;;;;;2.45;1.40;;;;;;;27.75;29.55;100358.75;5053420;28;20040;-62
2023/06/04 10:44:53;;;;;;;2.05;1.30;;;;;;;28.23;28.98;100367.13;5053647;28;20079;-61
2023/06/04 10:47:22;;;;;;;3.13;1.75;;;;;;;28.24;28.44;100359.75;5053195;28;20044;-59
2023/06/04 10:49:50;;;;;;;1.73;1.30;;;;;;;27.98;28.44;100356.41;5053052;28;20086;-51
2023/06/04 10:52:16;;;;;;;2.90;1.92;;;;;;;28.29;29.37;100362.41;5053288;28;20076;-59
2023/06/04 10:54:43;;;;;;;2.28;1.42;;;;;;;28.31;28.38;100358.31;5053217;28;20060;-61
2023/06/04 10:57:15;;;;;;;;;;;;;;;28.37;27.85;100359.09;5053542;28;20379;-60
2023/06/04 10:59:41;;;;;;;2.25;1.20;;;;;;;28.54;28.21;100364.13;5052823;28;19948;-60
2023/06/04 11:02:08;;;;;;;2.13;1.17;;;;;;;28.69;27.75;100350.28;5053005;28;20528;-60
2023/06/04 11:04:40;;;;;;;1.90;1.30;;;;;;;29.04;27.40;100357.28;5052977;28;20490;-60
2023/06/04 11:07:10;;;;;;;1.83;1.20;;;;;;;29.01;27.59;100363.34;5053016;28;20399;-62
2023/06/04 11:09:37;;;;;;;2.25;1.25;;;;;;;29.34;27.21;100345.09;5052600;28;20065;-60
2023/06/04 11:12:05;;;;;;;3.70;1.35;;;;;;;29.63;25.99;100352.41;5051650;28;20033;-59
2023/06/04 11:14:30;;;;;;;2.80;1.40;;;;;;;29.21;26.93;100337.56;5052649;28;20036;-60
2023/06/04 11:16:56;;;;;;;2.05;1.55;;;;;;;29.72;26.19;100345.09;5052612;28;20044;-60
2023/06/04 11:19:22;;;;;;;2.53;1.20;;;;;;;29.68;26.17;100344.91;5052444;28;20087;-63
2023/06/04 11:21:48;;;;;;;2.28;1.20;;;;;;;30.23;25.13;100353.34;5052590;28;20649;-60
2023/06/04 11:24:13;;;;;;;2.80;1.20;;;;;;;29.64;25.06;100341.09;5052645;28;20448;-62
2023/06/04 11:26:39;;;;;;;2.53;1.30;;;;;;;29.08;25.19;100350.13;5052624;28;20032;-63
2023/06/04 11:29:15;;;;;;;2.13;1.42;;;;;;;29.09;25.54;100353.66;5052347;28;20045;-64
2023/06/04 11:31:45;;;;;;;2.17;1.20;;;;;;;28.66;26.08;100340.69;5051961;28;20044;-61
2023/06/04 11:34:21;;;;;;;2.33;1.45;;;;;;;29.52;25.17;100338.00;5052479;28;20044;-64
2023/06/04 11:36:49;;;;;;;5.50;1.63;;;;;;;29.87;24.89;100342.13;5050995;28;20094;-64
2023/06/04 11:39:15;;;;;;;2.65;1.73;;;;;;;30.34;23.92;100337.50;5051981;28;20037;-63
2023/06/04 11:41:42;;;;;;;2.17;1.13;;;;;;;30.47;23.75;100339.47;5052224;28;20086;-64
2023/06/04 11:44:07;;;;;;;;;;;;;;;29.92;23.72;100332.97;5053069;28;20401;-63
2023/06/04 11:46:33;;;;;;;2.70;1.30;;;;;;;29.43;23.76;100329.59;5052303;28;19921;-63
2023/06/04 11:48:59;;;;;;;2.15;1.40;;;;;;;29.74;23.21;100342.91;5052003;28;20044;-63
2023/06/04 11:51:25;;;;;;;2.47;1.50;;;;;;;30.25;23.26;100333.81;5052210;28;20047;-62
2023/06/04 11:53:52;;;;;;;3.15;1.88;;;;;;;30.10;23.19;100334.09;5052118;28;20370;-63
2023/06/04 11:56:17;;;;;;;2.17;1.33;;;;;;;30.11;22.65;100343.94;5052070;28;20048;-60
2023/06/04 11:58:45;;;;;;;1.92;1.45;;;;;;;30.76;23.05;100333.69;5051825;28;20067;-63
2023/06/04 12:01:11;;;;;;;2.45;1.52;;;;;;;31.06;23.16;100340.50;5052095;28;20029;-64
2023/06/04 12:03:40;;;;;;;1.95;1.27;;;;;;;30.19;23.45;100335.00;5051989;28;20036;-61
2023/06/04 12:06:10;;;;;;;2.60;1.50;;;;;;;30.99;22.22;100334.59;5051609;28;20033;-61
2023/06/04 12:08:47;;;;;;;2.67;1.80;;;;;;;31.22;21.74;100338.22;5051477;28;20044;-62
2023/06/04 12:11:26;;;;;;;1.77;1.38;;;;;;;30.87;22.29;100334.31;5051775;28;20470;-64
2023/06/04 12:13:53;;;;;;;2.65;1.70;;;;;;;30.72;21.48;100332.69;5051953;28;20120;-63
2023/06/04 12:16:18;;;;;;;1.90;1.30;;;;;;;30.73;21.73;100334.31;5051895;28;20048;-60
2023/06/04 12:18:44;;;;;;;1.67;1.40;;;;;;;30.15;21.86;100321.09;5050337;28;20049;-64
2023/06/04 12:21:26;;;;;;;1.65;1.42;;;;;;;31.14;22.42;100318.91;5051870;28;20041;-63
2023/06/04 12:24:13;;;;;;;2.97;1.60;;;;;;;31.13;21.79;100323.59;5052014;28;20497;-62
2023/06/04 12:26:43;;;;;;;2.08;1.30;;;;;;;31.57;20.44;100324.81;5051832;28;20045;-64
2023/06/04 12:29:13;;;;;;;2.42;1.60;;;;;;;31.34;21.83;100323.97;5051498;28;20044;-64
2023/06/04 12:31:42;;;;;;;2.45;1.67;;;;;;;31.25;21.33;100315.66;5051723;28;20402;-62
2023/06/04 12:34:08;;;;;;;3.15;2.47;;;;;;;30.99;21.83;100320.84;5051792;28;20041;-63
2023/06/04 12:36:34;;;;;;;17.27;9.82;;;;;;;31.79;21.86;100318.53;5050543;28;20052;-59
2023/06/04 12:39:02;;;;;;;4.97;2.00;;;;;;;31.99;21.16;100318.03;5051608;28;20035;-60
2023/06/04 12:41:28;;;;;;;2.15;1.50;;;;;;;31.05;21.84;100316.88;5051642;28;20029;-62
2023/06/04 12:43:54;;;;;;;1.80;1.50;;;;;;;32.08;21.03;100315.31;5054879;28;20041;-62
2023/06/04 12:46:21;;;;;;;1.92;1.30;;;;;;;31.97;20.74;100325.78;5055493;28;20083;-62
2023/06/04 12:48:47;;;;;;;;;;;;;;;32.58;20.45;100326.13;5055769;28;20178;-62
2023/06/04 12:51:12;;;;;;;2.03;1.33;;;;;;;32.52;21.57;100319.94;5055505;28;20027;-63
2023/06/04 12:53:41;;;;;;;2.27;1.40;;;;;;;32.87;20.60;100320.13;5055698;28;20029;-63
2023/06/04 12:56:07;;;;;;;2.13;1.60;;;;;;;31.91;20.45;100326.25;5055358;28;20032;-60
2023/06/04 12:58:33;;;;;;;3.20;1.73;;;;;;;32.50;19.80;100324.16;5055221;28;20026;-62
2023/06/04 13:00:59;;;;;;;2.77;1.40;;;;;;;32.85;20.14;100314.06;5055442;28;20278;-53
2023/06/04 13:03:25;;;;;;;1.60;1.30;;;;;;;32.92;21.27;100311.66;5055303;28;20052;-50
2023/06/04 13:05:53;;;;;;;3.38;2.00;;;;;;;32.25;21.54;100300.81;5055192;28;20508;-61
2023/06/04 13:08:22;;;;;;;2.33;1.63;;;;;;;31.37;23.16;100308.78;5055002;28;20033;-61
2023/06/04 13:10:48;;;;;;;2.83;1.88;;;;;;;31.10;22.94;100318.69;5055064;28;20043;-59
2023/06/04 13:13:15;;;;;;;2.35;1.48;;;;;;;31.09;24.10;100311.56;5055245;28;20048;-61
2023/06/04 13:15:41;;;;;;;2.38;1.50;;;;;;;30.50;25.05;100303.13;5055000;28;20044;-62
2023/06/04 13:18:07;;;;;;;2.15;1.40;;;;;;;30.16;24.74;100289.75;5055034;28;20037;-63
2023/06/04 13:20:32;;;;;;;3.00;1.40;;;;;;;30.05;23.55;100301.19;5054789;28;20083;-61
2023/06/04 13:22:58;;;;;;;3.00;2.05;;;;;;;29.58;25.59;100300.31;5054863;28;20068;-61
2023/06/04 13:25:23;;;;;;;2.00;1.40;;;;;;;28.61;28.67;100294.16;5054942;28;20041;-65
2023/06/04 13:27:49;;;;;;;2.15;1.50;;;;;;;29.02;26.05;100298.38;5054945;28;20041;-62
2023/06/04 13:30:14;;;;;;;2.38;1.50;;;;;;;28.56;25.13;100307.09;5054420;28;20041;-61
2023/06/04 13:32:40;;;;;;;2.50;1.45;;;;;;;28.45;26.12;100302.88;5054629;28;20070;-62
2023/06/04 13:35:06;;;;;;;2.58;1.70;;;;;;;28.43;26.86;100299.56;5054546;28;20041;-62
2023/06/04 13:37:31;;;;;;;2.47;1.88;;;;;;;28.13;30.78;100294.09;5054554;28;20041;-62
2023/06/04 13:39:56;;;;;;;2.72;1.70;;;;;;;28.24;26.93;100303.06;5054401;28;20041;-60
2023/06/04 13:42:22;;;;;;;3.33;1.85;;;;;;;28.12;29.19;100302.63;5054575;28;20397;-61
2023/06/04 13:44:47;;;;;;;2.90;1.77;;;;;;;27.41;27.05;100297.69;5054623;28;20073;-62
2023/06/04 13:47:12;;;;;;;2.25;1.45;;;;;;;27.52;30.09;100294.59;5053140;28;20409;-61
2023/06/04 13:49:38;;;;;;;3.55;1.95;;;;;;;27.38;28.74;100298.25;5054174;28;20037;-62
2023/06/04 13:52:03;;;;;;;2.28;1.48;;;;;;;27.25;28.04;100289.56;5054367;28;20124;-62
2023/06/04 13:54:29;;;;;;;1.73;1.40;;;;;;;27.06;28.39;100283.13;5053857;28;20048;-62
2023/06/04 13:56:55;;;;;;;1.85;1.42;;;;;;;27.28;28.54;100277.25;5054349;28;20037;-62
2023/06/04 13:59:20;;;;;;;2.88;1.40;;;;;;;27.13;28.14;100277.38;5054047;28;20126;-63
2023/06/04 14:01:45;;;;;;;3.22;1.55;;;;;;;27.42;28.10;100282.91;5054112;28;20037;-62
2023/06/04 14:04:11;;;;;;;2.22;1.30;;;;;;;27.43;28.34;100279.88;5054240;28;20126;-61
2023/06/04 14:06:37;;;;;;;2.53;1.60;;;;;;;27.41;27.52;100273.06;5054088;28;20041;-64
2023/06/04 14:09:05;;;;;;;3.07;1.60;;;;;;;27.22;28.30;100273.72;5053794;28;20036;-64
2023/06/04 14:11:32;;;;;;;3.28;1.40;;;;;;;26.83;27.41;100275.56;5053986;28;20394;-63
2023/06/04 14:13:57;;;;;;;2.10;1.40;;;;;;;27.09;27.51;100274.34;5053937;28;20704;-64
2023/06/04 14:16:23;;;;;;;2.50;1.50;;;;;;;27.01;29.28;100272.19;5053936;28;20167;-64
2023/06/04 14:18:48;;;;;;;2.97;1.73;;;;;;;26.60;27.01;100269.63;5053576;28;20037;-61
2023/06/04 14:21:14;;;;;;;2.10;1.50;;;;;;;26.67;27.50;100266.59;5053846;28;20036;-62
2023/06/04 14:23:39;;;;;;;2.33;1.42;;;;;;;26.42;27.47;100275.72;5053794;28;20044;-62
2023/06/04 14:26:05;;;;;;;2.88;1.90;;;;;;;26.52;27.54;100268.28;5053708;28;20048;-63
2023/06/04 14:28:30;;;;;;;2.72;1.70;;;;;;;26.69;27.44;100264.41;5053356;28;20039;-63
2023/06/04 14:30:57;;;;;;;1.77;1.38;;;;;;;26.75;27.08;100268.75;5053550;28;20144;-62
2023/06/04 14:33:23;;;;;;;4.05;1.88;;;;;;;26.83;27.37;100272.81;5053671;28;20406;-62
2023/06/04 14:35:48;;;;;;;2.13;1.52;;;;;;;26.84;28.87;100267.06;5052360;28;20045;-63
2023/06/04 14:38:15;;;;;;;3.10;1.50;;;;;;;26.47;26.68;100268.31;5053390;28;20057;-63
2023/06/04 14:40:41;;;;;;;2.63;1.85;;;;;;;26.54;27.10;100273.50;5053427;28;20037;-63
2023/06/04 14:43:07;;;;;;;2.20;1.63;;;;;;;26.32;26.68;100260.13;5053430;28;20064;-64
2023/06/04 14:45:32;;;;;;;2.63;1.77;;;;;;;26.19;26.73;100261.53;5053302;28;20078;-64
2023/06/04 14:47:58;;;;;;;6.05;1.92;;;;;;;26.39;25.86;100266.13;5053368;28;20043;-62
2023/06/04 14:50:23;;;;;;;2.65;1.50;;;;;;;26.48;25.87;100263.69;5053097;28;20573;-63
2023/06/04 14:52:48;;;;;;;3.00;1.70;;;;;;;26.32;26.55;100257.41;5053140;28;20482;-64
2023/06/04 14:55:14;;;;;;;3.03;1.60;;;;;;;26.39;26.06;100260.66;5053205;28;20132;-62
2023/06/04 14:57:40;;;;;;;2.90;1.80;;;;;;;26.38;24.92;100259.03;5052924;28;20052;-64
2023/06/04 15:00:06;;;;;;;1.95;1.35;;;;;;;26.28;23.76;100255.50;5052695;28;20045;-64
2023/06/04 15:02:31;;;;;;;2.40;1.63;;;;;;;26.14;23.93;100242.41;5052881;28;20037;-64
2023/06/04 15:04:57;;;;;;;3.20;1.60;;;;;;;26.14;24.57;100247.88;5052212;28;20112;-65
2023/06/04 15:07:22;;;;;;;2.20;1.60;;;;;;;26.24;25.01;100250.59;5052843;28;20478;-64
2023/06/04 15:09:48;;;;;;;2.67;1.45;;;;;;;26.10;24.74;100230.44;5052909;28;20045;-61
2023/06/04 15:12:18;;;;;;;2.42;1.60;;;;;;;25.96;25.20;100243.84;5052764;28;20045;-64
2023/06/04 15:14:43;;;;;;;2.72;1.38;;;;;;;25.92;25.43;100245.47;5052906;28;20045;-64
2023/06/04 15:17:09;;;;;;;2.40;2.05;;;;;;;25.94;25.65;100240.53;5052698;28;20029;-64
2023/06/04 15:19:34;;;;;;;2.78;1.55;;;;;;;25.85;24.93;100257.75;5052672;28;20402;-64
2023/06/04 15:22:00;;;;;;;1.73;1.55;;;;;;;25.82;25.15;100248.22;5052562;28;20025;-64
2023/06/04 15:24:25;;;;;;;2.97;1.55;;;;;;;25.76;25.46;100248.50;5052672;28;20479;-62
2023/06/04 15:26:51;;;;;;;2.33;1.30;;;;;;;25.84;25.73;100248.75;5052554;28;20130;-63
2023/06/04 15:29:16;;;;;;;2.83;1.50;;;;;;;25.76;26.46;100243.06;5052494;28;20048;-65
2023/06/04 15:31:42;;;;;;;2.25;1.48;;;;;;;25.73;25.61;100241.66;5052470;28;20496;-66
2023/06/04 15:34:07;;;;;;;2.60;1.35;;;;;;;25.65;25.45;100245.72;5052413;28;20045;-65
2023/06/04 15:36:34;;;;;;;2.15;1.40;;;;;;;25.63;25.46;100244.38;5052475;28;20039;-65
2023/06/04 15:39:00;;;;;;;3.13;1.48;;;;;;;25.58;25.51;100238.91;5052155;28;20091;-65
2023/06/04 15:41:25;;;;;;;2.50;1.48;;;;;;;25.50;25.39;100243.00;5052432;28;20029;-65
2023/06/04 15:43:52;;;;;;;1.55;1.27;;;;;;;25.44;24.81;100234.00;5052219;28;20549;-65
2023/06/04 15:46:18;;;;;;;;;;;;;;;25.41;25.10;100233.72;5052740;28;20509;-66